createdAt,value
2019-03-08T00:02:05.079Z,7.43
2019-03-08T00:04:35.668Z,7.45
2019-03-08T00:07:06.249Z,7.40
2019-03-08T00:09:36.644Z,7.40
2019-03-08T00:12:07.233Z,7.37
2019-03-08T00:14:37.710Z,7.33
2019-03-08T00:17:08.309Z,7.26
2019-03-08T00:19:39.490Z,7.24
2019-03-08T00:22:10.706Z,7.26
2019-03-08T00:24:41.272Z,7.22
2019-03-08T00:27:11.632Z,7.10
2019-03-08T00:29:42.109Z,6.99
2019-03-08T00:32:12.743Z,6.87
2019-03-08T00:34:43.240Z,6.75
2019-03-08T00:37:13.792Z,6.76
2019-03-08T00:39:44.193Z,6.73
2019-03-08T00:42:14.623Z,6.70
2019-03-08T00:44:45.110Z,6.75
2019-03-08T00:47:15.709Z,6.70
2019-03-08T00:49:46.159Z,6.58
2019-03-08T00:52:16.644Z,6.54
2019-03-08T00:54:47.353Z,6.42
2019-03-08T00:57:17.979Z,6.37
2019-03-08T00:59:48.403Z,6.28
2019-03-08T01:02:18.945Z,6.22
2019-03-08T01:04:49.972Z,6.25
2019-03-08T01:07:20.533Z,6.26
2019-03-08T01:09:51.179Z,6.36
2019-03-08T01:12:21.788Z,6.55
2019-03-08T01:14:52.391Z,6.58
2019-03-08T01:17:23.118Z,6.58
2019-03-08T01:19:53.704Z,6.65
2019-03-08T01:22:24.226Z,6.65
2019-03-08T01:24:55.173Z,6.72
2019-03-08T01:27:25.659Z,6.67
2019-03-08T01:29:56.463Z,6.73
2019-03-08T01:32:27.029Z,6.72
2019-03-08T01:34:57.833Z,6.77
2019-03-08T01:37:28.442Z,6.67
2019-03-08T01:39:59.063Z,6.64
2019-03-08T01:42:30.099Z,6.72
2019-03-08T01:45:00.683Z,6.82
2019-03-08T01:47:31.267Z,6.88
2019-03-08T01:50:01.956Z,7.10
2019-03-08T01:52:32.833Z,7.10
2019-03-08T01:55:03.832Z,7.15
2019-03-08T01:57:34.193Z,7.07
2019-03-08T02:00:05.521Z,7.03
2019-03-08T02:02:36.459Z,7.07
2019-03-08T02:05:07.637Z,7.21
2019-03-08T02:07:38.379Z,7.20
2019-03-08T02:10:10.579Z,7.09
2019-03-08T02:12:42.099Z,7.18
2019-03-08T02:15:14.700Z,7.13
2019-03-08T02:17:45.263Z,7.24
2019-03-08T02:20:20.374Z,7.22
2019-03-08T02:22:50.943Z,7.25
2019-03-08T02:25:21.839Z,7.24
2019-03-08T02:27:52.445Z,7.26
2019-03-08T02:30:23.066Z,7.21
2019-03-08T02:32:53.521Z,7.18
2019-03-08T02:35:24.063Z,7.24
2019-03-08T02:37:54.789Z,7.27
2019-03-08T02:40:36.736Z,7.23
2019-03-08T02:43:16.403Z,7.24
2019-03-08T02:45:47.102Z,7.28
2019-03-08T02:48:17.659Z,7.30
2019-03-08T02:50:48.062Z,7.30
2019-03-08T02:53:18.821Z,7.21
2019-03-08T02:55:51.293Z,7.17
2019-03-08T02:58:21.838Z,7.22
2019-03-08T03:00:52.415Z,7.39
2019-03-08T03:03:22.978Z,7.26
2019-03-08T03:05:54.443Z,7.25
2019-03-08T03:08:24.995Z,7.39
2019-03-08T03:10:55.503Z,7.42
2019-03-08T03:13:26.059Z,7.49
2019-03-08T03:15:56.623Z,7.45
2019-03-08T03:18:27.085Z,7.39
2019-03-08T03:20:57.610Z,7.39
2019-03-08T03:23:27.998Z,7.44
2019-03-08T03:25:58.394Z,7.37
2019-03-08T03:28:28.928Z,7.31
2019-03-08T03:30:59.674Z,7.31
2019-03-08T03:33:30.098Z,7.34
2019-03-08T03:36:00.593Z,7.36
2019-03-08T03:38:33.103Z,7.43
2019-03-08T03:41:03.706Z,7.47
2019-03-08T03:43:34.627Z,7.46
2019-03-08T03:46:05.183Z,7.45
2019-03-08T03:48:35.607Z,7.35
2019-03-08T03:51:06.146Z,7.34
2019-03-08T03:53:36.636Z,7.47
2019-03-08T03:56:07.577Z,7.39
2019-03-08T03:58:38.066Z,7.37
2019-03-08T04:01:27.593Z,7.34
2019-03-08T04:03:58.053Z,7.38
2019-03-08T04:06:28.642Z,7.40
2019-03-08T04:08:59.047Z,7.43
2019-03-08T04:11:29.600Z,7.49
2019-03-08T04:14:00.007Z,7.51
2019-03-08T04:16:30.569Z,7.49
2019-03-08T04:19:01.092Z,7.35
2019-03-08T04:21:31.567Z,7.27
2019-03-08T04:24:02.317Z,7.35
2019-03-08T04:26:33.018Z,7.42
2019-03-08T04:29:03.912Z,7.34
2019-03-08T04:31:34.899Z,7.37
2019-03-08T04:34:05.467Z,7.35
2019-03-08T04:36:36.053Z,7.41
2019-03-08T04:39:09.823Z,7.25
2019-03-08T04:41:40.307Z,7.15
2019-03-08T04:44:10.788Z,7.22
2019-03-08T04:46:41.179Z,7.30
2019-03-08T04:49:11.599Z,7.18
2019-03-08T04:51:42.162Z,7.12
2019-03-08T04:54:12.638Z,7.16
2019-03-08T04:56:43.363Z,7.18
2019-03-08T04:59:14.469Z,7.21
2019-03-08T05:01:45.265Z,7.28
2019-03-08T05:04:16.121Z,7.30
2019-03-08T05:06:47.032Z,7.18
2019-03-08T05:09:17.864Z,7.18
2019-03-08T05:11:49.255Z,7.18
2019-03-08T05:14:20.191Z,7.10
2019-03-08T05:16:50.870Z,7.02
2019-03-08T05:19:21.567Z,7.05
2019-03-08T05:21:52.468Z,7.03
2019-03-08T05:24:23.003Z,7.13
2019-03-08T05:26:53.735Z,6.96
2019-03-08T05:29:24.482Z,6.87
2019-03-08T05:31:55.031Z,6.91
2019-03-08T05:34:25.939Z,6.96
2019-03-08T05:36:56.537Z,6.97
2019-03-08T05:39:27.157Z,7.02
2019-03-08T05:41:57.858Z,7.09
2019-03-08T05:44:28.437Z,7.10
2019-03-08T05:46:59.174Z,7.13
2019-03-08T05:49:29.817Z,7.22
2019-03-08T05:52:00.434Z,7.22
2019-03-08T05:54:31.204Z,7.12
2019-03-08T05:57:01.812Z,7.08
2019-03-08T05:59:32.480Z,7.16
2019-03-08T06:02:03.210Z,7.13
2019-03-08T06:04:33.633Z,7.18
2019-03-08T06:07:04.406Z,7.12
2019-03-08T06:09:35.103Z,7.18
2019-03-08T06:12:05.850Z,7.23
2019-03-08T06:14:36.337Z,7.25
2019-03-08T06:17:06.927Z,7.42
2019-03-08T06:19:37.561Z,7.90
2019-03-08T06:22:07.988Z,8.44
2019-03-08T06:24:38.459Z,8.99
2019-03-08T06:27:09.445Z,9.35
2019-03-08T06:29:40.030Z,9.58
2019-03-08T06:32:10.617Z,9.84
2019-03-08T06:34:41.273Z,10.41
2019-03-08T06:37:11.722Z,10.55
2019-03-08T06:39:42.312Z,11.25
2019-03-08T06:42:12.826Z,10.92
2019-03-08T06:44:43.157Z,11.16
2019-03-08T06:47:13.591Z,12.27
2019-03-08T06:49:44.229Z,13.17
2019-03-08T06:52:14.793Z,12.34
2019-03-08T06:54:45.480Z,12.63
2019-03-08T06:57:16.058Z,12.69
2019-03-08T07:00:10.068Z,13.56
2019-03-08T07:02:40.673Z,13.78
2019-03-08T07:05:11.264Z,14.15
2019-03-08T07:07:41.936Z,14.22
2019-03-08T07:10:12.853Z,13.05
2019-03-08T07:12:43.368Z,13.04
2019-03-08T07:15:14.070Z,12.93
2019-03-08T07:17:44.894Z,13.71
2019-03-08T07:20:34.467Z,15.00
2019-03-08T07:23:27.831Z,14.38
2019-03-08T07:26:07.157Z,15.08
2019-03-08T07:28:57.456Z,14.28
2019-03-08T07:31:39.657Z,13.90
2019-03-08T07:34:16.168Z,14.87
2019-03-08T07:37:05.533Z,15.39
2019-03-08T07:39:55.258Z,15.50
2019-03-08T07:42:45.170Z,15.61
2019-03-08T07:45:30.835Z,15.54
2019-03-08T07:48:17.177Z,15.62
2019-03-08T07:51:06.900Z,16.75
2019-03-08T07:53:47.308Z,15.79
2019-03-08T07:56:36.618Z,14.93
2019-03-08T07:59:25.977Z,15.13
2019-03-08T08:02:02.791Z,15.21
2019-03-08T08:04:41.024Z,15.54
2019-03-08T08:07:30.606Z,16.42
2019-03-08T08:10:19.938Z,16.26
2019-03-08T08:13:09.493Z,16.06
2019-03-08T08:15:54.664Z,15.54
2019-03-08T08:18:38.543Z,16.01
2019-03-08T08:21:27.983Z,15.28
2019-03-08T08:24:05.883Z,15.66
2019-03-08T08:26:44.898Z,15.66
2019-03-08T08:29:35.188Z,15.45
2019-03-08T08:32:25.702Z,15.80
2019-03-08T08:35:09.453Z,15.55
2019-03-08T08:37:51.337Z,15.78
2019-03-08T08:40:41.229Z,16.17
2019-03-08T08:43:30.572Z,15.20
2019-03-08T08:46:09.181Z,15.20
2019-03-08T08:48:58.743Z,14.90
2019-03-08T08:51:48.168Z,14.68
2019-03-08T08:54:28.621Z,15.08
2019-03-08T08:57:08.147Z,14.52
2019-03-08T08:59:47.208Z,13.97
2019-03-08T09:02:31.077Z,14.19
2019-03-08T09:05:06.817Z,14.46
2019-03-08T09:07:45.529Z,13.94
2019-03-08T09:10:26.568Z,12.73
2019-03-08T09:13:02.357Z,12.92
2019-03-08T09:15:40.440Z,12.83
2019-03-08T09:18:17.833Z,12.94
2019-03-08T09:20:57.977Z,12.91
2019-03-08T09:23:34.597Z,12.60
2019-03-08T09:26:24.021Z,12.68
2019-03-08T09:29:04.606Z,12.95
2019-03-08T09:31:53.991Z,13.10
2019-03-08T09:34:43.327Z,12.90
2019-03-08T09:37:32.731Z,14.40
2019-03-08T09:40:22.147Z,13.67
2019-03-08T09:43:01.869Z,14.02
2019-03-08T09:45:41.459Z,14.79
2019-03-08T09:48:30.894Z,15.23
2019-03-08T09:51:11.723Z,15.54
2019-03-08T09:53:47.312Z,15.86
2019-03-08T09:56:23.544Z,16.20
2019-03-08T09:59:12.886Z,17.11
2019-03-08T10:01:53.118Z,16.80
2019-03-08T10:04:42.778Z,16.73
2019-03-08T10:07:32.252Z,16.07
2019-03-08T10:10:21.698Z,15.02
2019-03-08T10:13:11.124Z,14.52
2019-03-08T10:15:46.217Z,14.45
2019-03-08T10:18:35.973Z,14.45
2019-03-08T10:21:19.267Z,15.35
2019-03-08T10:24:08.950Z,15.49
2019-03-08T10:26:46.930Z,15.30
2019-03-08T10:29:27.044Z,15.63
2019-03-08T10:32:16.134Z,14.47
2019-03-08T10:35:06.133Z,14.15
2019-03-08T10:37:47.661Z,13.92
2019-03-08T10:40:25.527Z,13.29
2019-03-08T10:42:59.768Z,13.32
2019-03-08T10:45:48.256Z,13.11
2019-03-08T10:48:26.958Z,13.47
2019-03-08T10:51:16.494Z,13.05
2019-03-08T10:54:06.011Z,13.54
2019-03-08T10:56:55.419Z,13.33
2019-03-08T10:59:31.487Z,12.92
2019-03-08T11:02:21.157Z,12.83
2019-03-08T11:05:02.627Z,12.77
2019-03-08T11:07:51.792Z,12.64
2019-03-08T11:10:37.022Z,12.56
2019-03-08T11:13:24.879Z,12.63
2019-03-08T11:16:14.336Z,12.48
2019-03-08T11:19:08.814Z,12.26
2019-03-08T11:21:55.275Z,12.34
2019-03-08T11:24:45.170Z,12.23
2019-03-08T11:27:28.396Z,12.08
2019-03-08T11:30:11.003Z,11.95
2019-03-08T11:32:53.888Z,11.79
2019-03-08T11:35:43.552Z,11.80
2019-03-08T11:38:32.872Z,11.76
2019-03-08T11:41:10.018Z,11.75
2019-03-08T11:43:56.452Z,11.67
2019-03-08T11:46:36.521Z,11.58
2019-03-08T11:49:23.851Z,11.53
2019-03-08T11:52:13.298Z,11.47
2019-03-08T11:55:03.835Z,11.48
2019-03-08T11:57:53.994Z,11.43
2019-03-08T12:00:43.371Z,11.37
2019-03-08T12:03:32.777Z,11.39
2019-03-08T12:06:14.348Z,11.38
2019-03-08T12:09:03.747Z,11.37
2019-03-08T12:11:53.198Z,11.34
2019-03-08T12:14:42.631Z,11.31
2019-03-08T12:17:29.189Z,11.30
2019-03-08T12:20:08.881Z,11.28
2019-03-08T12:22:58.704Z,11.38
2019-03-08T12:25:48.336Z,11.24
2019-03-08T12:28:37.146Z,11.13
2019-03-08T12:31:16.413Z,11.06
2019-03-08T12:34:00.117Z,11.05
2019-03-08T12:36:49.405Z,10.99
2019-03-08T12:39:32.866Z,11.02
2019-03-08T12:42:22.572Z,11.09
2019-03-08T12:45:12.011Z,11.16
2019-03-08T12:48:01.806Z,11.26
2019-03-08T12:50:51.267Z,11.17
2019-03-08T12:53:41.022Z,11.26
2019-03-08T12:56:25.954Z,11.39
2019-03-08T12:59:15.428Z,11.35
2019-03-08T13:02:04.763Z,11.29
2019-03-08T13:04:54.234Z,11.41
2019-03-08T13:07:38.018Z,11.45
2019-03-08T13:10:11.056Z,11.61
2019-03-08T13:12:41.580Z,11.69
2019-03-08T13:15:14.224Z,11.64
2019-03-08T13:17:45.051Z,11.59
2019-03-08T13:20:17.748Z,11.74
2019-03-08T13:22:48.449Z,11.82
2019-03-08T13:25:19.448Z,11.82
2019-03-08T13:27:50.104Z,11.75
2019-03-08T13:30:22.499Z,11.61
2019-03-08T13:32:53.279Z,11.48
2019-03-08T13:35:23.863Z,11.55
2019-03-08T13:37:54.579Z,11.48
2019-03-08T13:40:25.486Z,11.44
2019-03-08T13:42:56.178Z,11.45
2019-03-08T13:45:26.983Z,11.46
2019-03-08T13:47:57.613Z,11.50
2019-03-08T13:50:28.317Z,11.61
2019-03-08T13:52:58.865Z,11.65
2019-03-08T13:55:29.364Z,11.59
2019-03-08T13:57:59.943Z,11.53
2019-03-08T14:00:30.688Z,11.41
2019-03-08T14:03:01.403Z,11.39
2019-03-08T14:05:32.084Z,11.32
2019-03-08T14:08:02.682Z,11.23
2019-03-08T14:10:33.120Z,11.17
2019-03-08T14:13:03.754Z,11.05
2019-03-08T14:15:34.238Z,10.98
2019-03-08T14:18:04.901Z,10.95
2019-03-08T14:20:35.652Z,10.91
2019-03-08T14:23:06.383Z,10.92
2019-03-08T14:25:36.984Z,10.98
2019-03-08T14:28:07.782Z,11.04
2019-03-08T14:30:45.283Z,11.13
2019-03-08T14:33:15.951Z,11.18
2019-03-08T14:35:46.553Z,11.24
2019-03-08T14:38:17.033Z,11.14
2019-03-08T14:41:06.732Z,11.11
2019-03-08T14:43:48.974Z,11.10
2019-03-08T14:46:24.708Z,11.14
2019-03-08T14:48:55.782Z,11.05
2019-03-08T14:51:26.294Z,11.11
2019-03-08T14:53:57.000Z,11.24
2019-03-08T14:56:31.721Z,11.34
2019-03-08T14:59:00.223Z,11.31
2019-03-08T15:01:30.903Z,11.23
2019-03-08T15:04:01.582Z,11.11
2019-03-08T15:06:51.317Z,11.05
2019-03-08T15:09:22.128Z,10.95
2019-03-08T15:11:55.955Z,10.88
2019-03-08T15:14:25.439Z,10.79
2019-03-08T15:16:55.880Z,10.76
2019-03-08T15:19:26.748Z,10.76
2019-03-08T15:21:57.286Z,10.75
2019-03-08T15:24:27.793Z,10.74
2019-03-08T15:26:58.343Z,10.71
2019-03-08T15:29:28.824Z,10.69
2019-03-08T15:31:59.714Z,10.65
2019-03-08T15:34:30.313Z,10.61
2019-03-08T15:37:00.950Z,10.57
2019-03-08T15:42:11.136Z,10.51
2019-03-08T15:44:41.798Z,10.42
2019-03-08T15:47:23.029Z,10.36
2019-03-08T15:49:44.672Z,10.29
2019-03-08T15:52:15.379Z,10.30
2019-03-08T15:54:45.964Z,10.30
2019-03-08T15:57:16.593Z,10.23
2019-03-08T15:59:47.102Z,10.22
2019-03-08T16:02:17.868Z,10.18
2019-03-08T16:04:50.131Z,10.13
2019-03-08T16:07:22.976Z,10.09
2019-03-08T16:09:53.539Z,10.04
2019-03-08T16:12:24.199Z,9.99
2019-03-08T16:14:55.125Z,9.97
2019-03-08T16:17:25.723Z,9.94
2019-03-08T16:19:58.803Z,9.87
2019-03-08T16:22:30.018Z,9.81
2019-03-08T16:25:00.945Z,9.73
2019-03-08T16:27:32.062Z,9.70
2019-03-08T16:30:09.630Z,9.68
2019-03-08T16:32:54.065Z,9.62
2019-03-08T16:35:25.531Z,9.60
2019-03-08T16:38:14.756Z,9.56
2019-03-08T16:41:02.244Z,9.55
2019-03-08T16:43:52.280Z,9.17
2019-03-08T16:46:34.350Z,8.43
2019-03-08T16:49:14.768Z,8.09
2019-03-08T16:52:04.578Z,8.08
2019-03-08T16:54:53.639Z,7.87
2019-03-08T16:57:42.086Z,7.75
2019-03-08T17:00:31.488Z,7.83
2019-03-08T17:03:15.855Z,7.89
2019-03-08T17:06:01.646Z,7.95
2019-03-08T17:08:51.091Z,7.89
2019-03-08T17:11:31.273Z,7.88
2019-03-08T17:14:13.676Z,7.93
2019-03-08T17:17:02.998Z,7.79
2019-03-08T17:19:49.447Z,7.52
2019-03-08T17:22:31.464Z,7.19
2019-03-08T17:25:11.645Z,7.11
2019-03-08T17:28:02.200Z,7.08
2019-03-08T17:30:51.638Z,6.87
2019-03-08T17:33:28.917Z,6.86
2019-03-08T17:36:09.298Z,6.74
2019-03-08T17:38:58.692Z,6.70
2019-03-08T17:41:55.662Z,6.69
2019-03-08T17:44:51.626Z,6.62
2019-03-08T17:47:44.648Z,6.59
2019-03-08T17:50:35.167Z,6.56
2019-03-08T17:53:24.593Z,6.53
2019-03-08T17:56:10.706Z,6.50
2019-03-08T17:59:00.571Z,6.55
2019-03-08T18:01:44.879Z,6.59
2019-03-08T18:04:36.354Z,6.56
2019-03-08T18:07:16.378Z,6.58
2019-03-08T18:10:05.533Z,6.61
2019-03-08T18:12:55.121Z,6.62
2019-03-08T18:15:31.893Z,6.65
2019-03-08T18:18:25.356Z,6.65
2019-03-08T18:21:08.258Z,6.66
2019-03-08T18:24:00.908Z,6.67
2019-03-08T18:26:53.897Z,6.63
2019-03-08T18:29:49.648Z,6.60
2019-03-08T18:32:39.108Z,6.54
2019-03-08T18:35:28.715Z,6.59
2019-03-08T18:38:21.496Z,6.60
2019-03-08T18:41:07.572Z,6.67
2019-03-08T18:43:59.393Z,6.69
2019-03-08T18:46:51.576Z,6.69
2019-03-08T18:49:39.513Z,6.67
2019-03-08T18:52:31.773Z,6.62
2019-03-08T18:55:13.400Z,6.62
2019-03-08T18:58:04.099Z,6.60
2019-03-08T19:01:07.413Z,6.61
2019-03-08T19:03:53.778Z,6.60
2019-03-08T19:06:34.117Z,6.58
2019-03-08T19:09:23.146Z,6.57
2019-03-08T19:12:08.723Z,6.55
2019-03-08T19:14:51.668Z,6.51
2019-03-08T19:17:38.441Z,6.44
2019-03-08T19:20:28.609Z,6.37
2019-03-08T19:23:08.649Z,6.32
2019-03-08T19:25:46.550Z,6.31
2019-03-08T19:28:36.048Z,6.30
2019-03-08T19:31:14.249Z,6.27
2019-03-08T19:33:57.033Z,6.26
2019-03-08T19:36:50.803Z,6.26
2019-03-08T19:39:45.658Z,6.26
2019-03-08T19:42:23.588Z,6.23
2019-03-08T19:45:14.788Z,6.23
2019-03-08T19:47:58.842Z,6.21
2019-03-08T19:50:49.809Z,6.18
2019-03-08T19:53:53.111Z,6.16
2019-03-08T19:56:47.599Z,6.13
2019-03-08T19:59:40.063Z,6.06
2019-03-08T20:02:18.001Z,5.93
2019-03-08T20:05:03.989Z,5.81
2019-03-08T20:07:53.516Z,5.77
2019-03-08T20:10:45.823Z,5.69
2019-03-08T20:13:36.461Z,5.61
2019-03-08T20:16:26.463Z,5.61
2019-03-08T20:19:09.900Z,5.54
2019-03-08T20:21:50.683Z,5.56
2019-03-08T20:24:31.088Z,5.57
2019-03-08T20:27:26.388Z,5.55
2019-03-08T20:30:16.154Z,5.55
2019-03-08T20:33:07.338Z,5.55
2019-03-08T20:36:01.091Z,5.51
2019-03-08T20:38:50.705Z,5.49
2019-03-08T20:41:40.142Z,5.46
2019-03-08T20:44:24.313Z,5.42
2019-03-08T20:46:59.953Z,5.39
2019-03-08T20:49:31.642Z,5.34
2019-03-08T20:52:12.585Z,5.32
2019-03-08T20:54:43.263Z,5.29
2019-03-08T20:57:14.278Z,5.21
2019-03-08T20:59:47.723Z,5.21
2019-03-08T21:02:18.342Z,5.15
2019-03-08T21:04:50.280Z,5.11
2019-03-08T21:07:26.271Z,5.05
2019-03-08T21:10:00.303Z,4.93
2019-03-08T21:12:38.284Z,4.90
2019-03-08T21:15:11.623Z,4.84
2019-03-08T21:18:04.932Z,4.71
2019-03-08T21:20:39.158Z,4.62
2019-03-08T21:23:17.931Z,4.59
2019-03-08T21:25:57.009Z,4.55
2019-03-08T21:28:27.793Z,4.50
2019-03-08T21:31:01.688Z,4.42
2019-03-08T21:33:35.367Z,4.33
2019-03-08T21:36:06.134Z,4.25
2019-03-08T21:38:37.856Z,4.17
2019-03-08T21:41:11.298Z,4.10
2019-03-08T21:43:41.983Z,4.08
2019-03-08T21:46:12.558Z,3.98
2019-03-08T21:48:43.094Z,3.91
2019-03-08T21:51:15.046Z,3.84
2019-03-08T21:53:45.417Z,3.77
2019-03-08T21:56:16.107Z,3.71
2019-03-08T21:58:46.721Z,3.74
2019-03-08T22:01:17.107Z,3.77
2019-03-08T22:03:53.568Z,3.74
2019-03-08T22:06:24.182Z,3.61
2019-03-08T22:09:03.589Z,3.55
2019-03-08T22:11:37.248Z,3.50
2019-03-08T22:14:08.422Z,3.46
2019-03-08T22:16:39.040Z,3.40
2019-03-08T22:19:10.010Z,3.31
2019-03-08T22:21:40.323Z,3.24
2019-03-08T22:24:13.641Z,3.18
2019-03-08T22:26:43.698Z,3.19
2019-03-08T22:29:14.186Z,3.21
2019-03-08T22:31:44.747Z,3.20
2019-03-08T22:34:15.309Z,3.18
2019-03-08T22:36:45.889Z,3.14
2019-03-08T22:39:16.741Z,3.09
2019-03-08T22:41:47.247Z,3.06
2019-03-08T22:44:19.363Z,3.02
2019-03-08T22:46:49.833Z,3.00
2019-03-08T22:49:20.214Z,2.97
2019-03-08T22:51:50.723Z,2.89
2019-03-08T22:54:21.145Z,2.84
2019-03-08T22:56:51.630Z,2.77
2019-03-08T22:59:22.037Z,2.77
2019-03-08T23:01:54.566Z,2.77
2019-03-08T23:04:25.033Z,2.79
2019-03-08T23:06:55.771Z,2.75
2019-03-08T23:09:26.440Z,2.74
2019-03-08T23:11:57.569Z,2.73
2019-03-08T23:14:28.063Z,2.73
2019-03-08T23:16:58.793Z,2.74
2019-03-08T23:19:29.202Z,2.78
2019-03-08T23:22:00.145Z,2.86
2019-03-08T23:24:30.679Z,2.92
2019-03-08T23:27:20.031Z,2.97
2019-03-08T23:29:54.116Z,3.04
2019-03-08T23:32:27.828Z,3.14
2019-03-08T23:34:58.090Z,3.21
2019-03-08T23:37:28.516Z,3.27
2019-03-08T23:39:58.965Z,3.30
2019-03-08T23:42:29.749Z,3.32
2019-03-08T23:45:00.363Z,3.38
2019-03-08T23:47:30.888Z,3.45
2019-03-08T23:50:01.465Z,3.49
2019-03-08T23:52:31.974Z,3.54
2019-03-08T23:55:02.649Z,3.57
2019-03-08T23:57:32.993Z,3.57
